Time;durP1;ratioP1;P1;durP2;ratioP2;P2;SDS_P1;SDS_P2;PMS_P1;PMS_P2;Temp;Humidity;BMP_temperature;BMP_pressure;BME280_temperature;BME280_humidity;BME280_pressure;Samples;Min_cycle;Max_cycle;Signal;HPM_P1;HPM_P2
2022/10/30 00:01:49;;;;;;;8.07;6.20;;;;;;;;;;5137338;27;20111;-74
2022/10/30 00:04:35;;;;;;;9.48;6.15;;;;;;;;;;5137725;27;20437;-74
2022/10/30 00:07:20;;;;;;;10.48;6.53;;;;;;;;;;5137454;27;20031;-74
2022/10/30 00:10:06;;;;;;;11.60;6.65;;;;;;;;;;5138190;27;20027;-74
2022/10/30 00:12:52;;;;;;;11.10;6.50;;;;;;;;;;5137607;27;20114;-74
2022/10/30 00:15:38;;;;;;;12.05;7.15;;;;;;;;;;5137794;27;20441;-73
2022/10/30 00:18:24;;;;;;;9.23;6.65;;;;;;;;;;5123054;27;20027;-73
2022/10/30 00:21:11;;;;;;;10.73;6.07;;;;;;;;;;5137376;27;20019;-72
2022/10/30 00:23:57;;;;;;;9.98;6.70;;;;;;;;;;5137524;27;20015;-73
2022/10/30 00:26:42;;;;;;;11.85;6.60;;;;;;;;;;5137778;27;20027;-74
2022/10/30 00:29:28;;;;;;;10.07;7.18;;;;;;;;;;5136853;27;20015;-73
2022/10/30 00:32:13;;;;;;;10.63;6.63;;;;;;;;;;5122731;27;20102;-74
2022/10/30 00:34:59;;;;;;;10.82;6.65;;;;;;;;;;5136887;27;20023;-74
2022/10/30 00:37:44;;;;;;;10.57;6.60;;;;;;;;;;5136906;27;20023;-74
2022/10/30 00:40:31;;;;;;;10.23;6.53;;;;;;;;;;5137138;27;20015;-73
2022/10/30 00:43:25;;;;;;;12.85;7.00;;;;;;;;;;5122273;27;20061;-74
2022/10/30 00:46:20;;;;;;;13.05;6.80;;;;;;;;;;5136103;27;20075;-73
2022/10/30 00:49:11;;;;;;;13.35;6.10;;;;;;;;;;5137088;27;20433;-73
2022/10/30 00:51:56;;;;;;;10.88;6.63;;;;;;;;;;5136308;27;20114;-74
2022/10/30 00:54:42;;;;;;;9.10;6.68;;;;;;;;;;5136232;27;20022;-74
2022/10/30 00:57:28;;;;;;;10.02;6.60;;;;;;;;;;5122410;27;20429;-73
2022/10/30 01:00:14;;;;;;;11.43;7.20;;;;;;;;;;5121295;27;20111;-73
2022/10/30 01:03:00;;;;;;;10.43;7.28;;;;;;;;;;5122862;27;20118;-74
2022/10/30 01:06:07;;;;;;;13.02;7.00;;;;;;;;;;5120823;27;20015;-73
2022/10/30 01:08:54;;;;;;;11.98;6.72;;;;;;;;;;5135757;27;20012;-73
2022/10/30 01:11:39;;;;;;;11.43;7.18;;;;;;;;;;5136989;27;20378;-75
2022/10/30 01:14:25;;;;;;;12.90;6.78;;;;;;;;;;5121652;27;20038;-74
2022/10/30 01:17:17;;;;;;;11.25;6.63;;;;;;;;;;5136630;27;20180;-73
2022/10/30 01:20:08;;;;;;;11.93;7.20;;;;;;;;;;5120072;27;20446;-74
2022/10/30 01:22:57;;;;;;;10.50;7.18;;;;;;;;;;5136301;27;20092;-74
2022/10/30 01:25:45;;;;;;;10.63;6.82;;;;;;;;;;5120734;27;20015;-74
2022/10/30 01:28:37;;;;;;;11.15;7.28;;;;;;;;;;5136184;27;20031;-74
2022/10/30 01:31:22;;;;;;;9.35;6.55;;;;;;;;;;5135861;27;20023;-73
2022/10/30 01:34:20;;;;;;;9.88;7.05;;;;;;;;;;5135489;27;20034;-74
2022/10/30 01:37:08;;;;;;;10.05;6.90;;;;;;;;;;5120780;27;20072;-74
2022/10/30 01:39:54;;;;;;;12.55;7.20;;;;;;;;;;5135404;27;20429;-74
2022/10/30 01:42:56;;;;;;;9.95;7.05;;;;;;;;;;5135584;27;20031;-74
2022/10/30 01:45:59;;;;;;;10.38;7.22;;;;;;;;;;5135734;27;20042;-74
2022/10/30 01:49:11;;;;;;;11.68;6.80;;;;;;;;;;5121522;27;20395;-73
2022/10/30 01:52:17;;;;;;;10.63;7.70;;;;;;;;;;5121895;27;20050;-73
2022/10/30 01:55:26;;;;;;;11.45;7.40;;;;;;;;;;5135707;27;20019;-74
2022/10/30 01:58:23;;;;;;;12.07;7.88;;;;;;;;;;5135041;27;20038;-74
2022/10/30 02:01:09;;;;;;;11.55;7.65;;;;;;;;;;5136358;27;20027;-74
2022/10/30 02:03:54;;;;;;;9.93;7.18;;;;;;;;;;5135801;27;20023;-74
2022/10/30 02:06:40;;;;;;;14.05;7.43;;;;;;;;;;5135416;27;20069;-74
2022/10/30 02:09:26;;;;;;;11.68;8.18;;;;;;;;;;5135481;28;20102;-74
2022/10/30 02:12:11;;;;;;;11.68;8.07;;;;;;;;;;5136106;28;20026;-74
2022/10/30 02:14:59;;;;;;;14.95;9.15;;;;;;;;;;5135478;28;20072;-74
2022/10/30 02:17:44;;;;;;;13.68;8.18;;;;;;;;;;5135484;28;20024;-74
2022/10/30 02:20:31;;;;;;;13.18;9.05;;;;;;;;;;5134975;28;20020;-74
2022/10/30 02:23:17;;;;;;;12.82;9.63;;;;;;;;;;5135923;28;20120;-75
2022/10/30 02:26:03;;;;;;;15.20;9.90;;;;;;;;;;5134957;28;20418;-74
2022/10/30 02:28:49;;;;;;;14.15;10.38;;;;;;;;;;5135295;28;20020;-74
2022/10/30 02:31:35;;;;;;;18.05;10.35;;;;;;;;;;5119332;28;20023;-73
2022/10/30 02:34:21;;;;;;;16.42;11.05;;;;;;;;;;5133776;28;20025;-74
2022/10/30 02:37:07;;;;;;;15.65;11.27;;;;;;;;;;5133839;28;20042;-74
2022/10/30 02:39:52;;;;;;;20.08;11.60;;;;;;;;;;5135638;28;20020;-74
2022/10/30 02:42:38;;;;;;;16.38;11.40;;;;;;;;;;5133784;28;20016;-74
2022/10/30 02:45:23;;;;;;;20.35;11.98;;;;;;;;;;5134789;28;20043;-74
2022/10/30 02:48:09;;;;;;;15.80;11.60;;;;;;;;;;5134621;28;20017;-74
2022/10/30 02:50:58;;;;;;;15.55;11.65;;;;;;;;;;5120772;28;20016;-74
2022/10/30 02:53:44;;;;;;;19.20;12.27;;;;;;;;;;5119220;28;20019;-74
2022/10/30 02:56:30;;;;;;;18.63;13.07;;;;;;;;;;5119414;28;20345;-73
2022/10/30 02:59:15;;;;;;;18.90;13.05;;;;;;;;;;5135231;28;20106;-73
2022/10/30 03:02:01;;;;;;;16.63;12.35;;;;;;;;;;5134441;28;20027;-74
2022/10/30 03:04:46;;;;;;;19.65;14.07;;;;;;;;;;5134178;28;20039;-74
2022/10/30 03:07:32;;;;;;;23.25;16.58;;;;;;;;;;5132830;28;20051;-73
2022/10/30 03:10:18;;;;;;;25.58;16.55;;;;;;;;;;5140357;28;20050;-72
2022/10/30 03:13:04;;;;;;;21.42;17.08;;;;;;;;;;5143962;27;20015;-74
2022/10/30 03:15:49;;;;;;;25.20;17.83;;;;;;;;;;5141164;27;20030;-74
2022/10/30 03:18:35;;;;;;;24.50;17.30;;;;;;;;;;5138949;27;20460;-73
2022/10/30 03:21:22;;;;;;;22.45;17.73;;;;;;;;;;5137486;27;20041;-75
2022/10/30 03:24:08;;;;;;;25.83;17.85;;;;;;;;;;5123495;27;20406;-75
2022/10/30 03:26:53;;;;;;;23.45;17.13;;;;;;;;;;5137753;27;20025;-74
2022/10/30 03:29:39;;;;;;;26.70;17.33;;;;;;;;;;5122342;27;20034;-74
2022/10/30 03:32:25;;;;;;;25.10;17.88;;;;;;;;;;5137109;27;20019;-73
2022/10/30 03:35:10;;;;;;;24.50;17.20;;;;;;;;;;5138170;27;20056;-73
2022/10/30 03:37:56;;;;;;;24.23;16.00;;;;;;;;;;5122349;27;20076;-74
2022/10/30 03:40:41;;;;;;;25.35;16.45;;;;;;;;;;5137293;27;20023;-74
2022/10/30 03:43:28;;;;;;;24.85;16.70;;;;;;;;;;5137302;27;20058;-74
2022/10/30 03:46:14;;;;;;;20.80;15.23;;;;;;;;;;5121415;27;20142;-73
2022/10/30 03:48:59;;;;;;;20.27;15.05;;;;;;;;;;5137534;27;20046;-74
2022/10/30 03:51:45;;;;;;;21.02;15.30;;;;;;;;;;5137288;27;20007;-74
2022/10/30 03:54:30;;;;;;;20.95;15.30;;;;;;;;;;5123373;27;20270;-73
2022/10/30 03:57:16;;;;;;;20.95;14.90;;;;;;;;;;5138267;27;20019;-73
2022/10/30 04:00:02;;;;;;;24.70;15.75;;;;;;;;;;5124331;27;20323;-74
2022/10/30 04:02:49;;;;;;;24.70;16.95;;;;;;;;;;5136353;27;20027;-74
2022/10/30 04:05:35;;;;;;;22.63;16.42;;;;;;;;;;5136677;27;20090;-74
2022/10/30 04:08:21;;;;;;;22.42;17.08;;;;;;;;;;5139483;27;20042;-74
2022/10/30 04:11:08;;;;;;;23.60;17.50;;;;;;;;;;5141670;27;20364;-73
2022/10/30 04:13:54;;;;;;;24.30;16.52;;;;;;;;;;5145589;27;20127;-74
2022/10/30 04:16:39;;;;;;;27.23;16.80;;;;;;;;;;5136803;27;20030;-75
2022/10/30 04:19:25;;;;;;;22.13;16.40;;;;;;;;;;5137368;27;20023;-74
2022/10/30 04:22:11;;;;;;;20.63;15.48;;;;;;;;;;5136433;27;20459;-73
2022/10/30 04:24:56;;;;;;;21.73;15.55;;;;;;;;;;5136076;27;20356;-74
2022/10/30 04:27:42;;;;;;;20.35;14.63;;;;;;;;;;5136950;27;20026;-74
2022/10/30 04:30:32;;;;;;;20.25;14.23;;;;;;;;;;5136574;27;20034;-74
2022/10/30 04:33:18;;;;;;;22.23;15.45;;;;;;;;;;5136947;27;20019;-74
2022/10/30 04:36:04;;;;;;;21.25;14.82;;;;;;;;;;5136108;27;20451;-74
2022/10/30 04:38:50;;;;;;;23.70;14.20;;;;;;;;;;5136362;27;20080;-74
2022/10/30 04:41:35;;;;;;;20.77;14.40;;;;;;;;;;5135486;27;20033;-73
2022/10/30 04:44:21;;;;;;;18.38;13.68;;;;;;;;;;5136008;27;20034;-75
2022/10/30 04:47:07;;;;;;;19.35;13.73;;;;;;;;;;5135963;27;20062;-74
2022/10/30 04:49:52;;;;;;;18.38;13.13;;;;;;;;;;5136008;27;20091;-73
2022/10/30 04:52:38;;;;;;;19.42;14.10;;;;;;;;;;5120952;27;20428;-73
2022/10/30 04:55:24;;;;;;;22.90;14.30;;;;;;;;;;5135128;27;20081;-73
2022/10/30 04:58:10;;;;;;;20.48;13.68;;;;;;;;;;5135872;27;20019;-74
2022/10/30 05:01:00;;;;;;;19.35;13.30;;;;;;;;;;5120672;27;20036;-73
2022/10/30 05:03:45;;;;;;;19.05;12.63;;;;;;;;;;5120459;27;20019;-73
2022/10/30 05:06:32;;;;;;;18.05;12.75;;;;;;;;;;5122150;27;20023;-74
2022/10/30 05:09:17;;;;;;;17.45;12.45;;;;;;;;;;5135320;27;20091;-75
2022/10/30 05:12:03;;;;;;;19.17;12.25;;;;;;;;;;5134847;27;20015;-74
2022/10/30 05:14:48;;;;;;;20.48;12.65;;;;;;;;;;5135774;27;20015;-75
2022/10/30 05:17:34;;;;;;;21.35;13.30;;;;;;;;;;5136103;27;20372;-74
2022/10/30 05:20:19;;;;;;;21.02;13.25;;;;;;;;;;5136204;27;20491;-74
2022/10/30 05:23:05;;;;;;;21.38;12.93;;;;;;;;;;5135873;27;20110;-73
2022/10/30 05:25:51;;;;;;;18.85;12.50;;;;;;;;;;5136062;27;20034;-74
2022/10/30 05:28:36;;;;;;;17.00;11.95;;;;;;;;;;5134621;27;20330;-73
2022/10/30 05:31:22;;;;;;;18.63;12.35;;;;;;;;;;5136744;27;20019;-74
2022/10/30 05:34:08;;;;;;;18.33;12.10;;;;;;;;;;5121247;27;20019;-73
2022/10/30 05:36:53;;;;;;;18.20;12.05;;;;;;;;;;5134548;27;20023;-72
2022/10/30 05:39:39;;;;;;;17.02;11.10;;;;;;;;;;5135087;27;20023;-73
2022/10/30 05:42:24;;;;;;;16.27;10.88;;;;;;;;;;5135364;27;20357;-73
2022/10/30 05:45:10;;;;;;;17.27;11.07;;;;;;;;;;5135592;27;20073;-74
2022/10/30 05:47:59;;;;;;;16.33;10.90;;;;;;;;;;5136325;27;20123;-74
2022/10/30 05:50:45;;;;;;;16.55;11.27;;;;;;;;;;5134528;27;20467;-71
2022/10/30 05:53:31;;;;;;;15.18;10.98;;;;;;;;;;5134714;27;20447;-72
2022/10/30 05:56:16;;;;;;;13.48;10.65;;;;;;;;;;5135636;27;20019;-72
2022/10/30 05:59:02;;;;;;;15.32;10.43;;;;;;;;;;5135591;27;20088;-72
2022/10/30 06:01:48;;;;;;;12.65;9.75;;;;;;;;;;5135048;27;20463;-72
2022/10/30 06:04:33;;;;;;;17.60;10.48;;;;;;;;;;5134696;27;20373;-72
2022/10/30 06:07:19;;;;;;;13.95;10.07;;;;;;;;;;5119714;27;20510;-72
2022/10/30 06:10:04;;;;;;;17.35;10.70;;;;;;;;;;5134344;27;20015;-72
2022/10/30 06:12:53;;;;;;;16.88;10.43;;;;;;;;;;5135133;27;20027;-72
2022/10/30 06:15:39;;;;;;;18.20;10.00;;;;;;;;;;5134057;28;20054;-71
2022/10/30 06:18:25;;;;;;;15.55;9.77;;;;;;;;;;5134452;28;20026;-72
2022/10/30 06:21:10;;;;;;;11.80;9.48;;;;;;;;;;5134948;28;20112;-73
2022/10/30 06:23:57;;;;;;;11.43;8.65;;;;;;;;;;5120486;28;20011;-73
2022/10/30 06:26:43;;;;;;;14.98;9.25;;;;;;;;;;5119861;28;20437;-71
2022/10/30 06:29:28;;;;;;;15.02;9.18;;;;;;;;;;5134771;28;20030;-71
2022/10/30 06:32:14;;;;;;;13.30;9.15;;;;;;;;;;5135588;28;20023;-73
2022/10/30 06:35:00;;;;;;;14.65;9.63;;;;;;;;;;5134753;28;20058;-71
2022/10/30 06:37:46;;;;;;;15.88;9.13;;;;;;;;;;5120336;28;20357;-72
2022/10/30 06:40:32;;;;;;;16.88;9.02;;;;;;;;;;5120842;28;20027;-72
2022/10/30 06:43:17;;;;;;;14.45;9.15;;;;;;;;;;5120269;28;20027;-71
2022/10/30 06:46:03;;;;;;;18.52;10.07;;;;;;;;;;5134529;28;20039;-72
2022/10/30 06:48:49;;;;;;;17.83;10.55;;;;;;;;;;5120050;27;20015;-72
2022/10/30 06:51:34;;;;;;;14.88;9.85;;;;;;;;;;5137642;27;20449;-72
2022/10/30 06:54:20;;;;;;;13.65;10.57;;;;;;;;;;5124522;27;20027;-72
2022/10/30 06:57:05;;;;;;;16.25;10.55;;;;;;;;;;5139048;27;20011;-72
2022/10/30 06:59:51;;;;;;;12.68;9.43;;;;;;;;;;5138489;27;20031;-71
2022/10/30 07:02:36;;;;;;;14.02;9.32;;;;;;;;;;5139093;27;20027;-71
2022/10/30 07:05:22;;;;;;;17.13;9.40;;;;;;;;;;5123711;27;20023;-72
2022/10/30 07:08:08;;;;;;;14.18;9.40;;;;;;;;;;5138827;27;20011;-71
2022/10/30 07:10:55;;;;;;;13.20;9.23;;;;;;;;;;5139364;27;20011;-70
2022/10/30 07:13:40;;;;;;;11.80;8.70;;;;;;;;;;5139031;27;20077;-71
2022/10/30 07:16:26;;;;;;;14.20;9.13;;;;;;;;;;5137613;27;20027;-71
2022/10/30 07:19:12;;;;;;;14.23;8.88;;;;;;;;;;5124887;27;20023;-70
2022/10/30 07:21:57;;;;;;;10.65;7.97;;;;;;;;;;5139023;27;20026;-74
2022/10/30 07:24:43;;;;;;;13.13;7.93;;;;;;;;;;5137865;27;20098;-72
2022/10/30 07:27:28;;;;;;;10.80;7.13;;;;;;;;;;5138022;27;20357;-71
2022/10/30 07:30:15;;;;;;;11.23;7.75;;;;;;;;;;5138441;27;20019;-72
2022/10/30 07:33:02;;;;;;;9.30;7.03;;;;;;;;;;5139520;27;20035;-76
2022/10/30 07:35:47;;;;;;;12.57;7.55;;;;;;;;;;5138672;27;20019;-75
2022/10/30 07:38:33;;;;;;;13.98;7.32;;;;;;;;;;5139595;27;20445;-75
2022/10/30 07:41:19;;;;;;;10.82;7.05;;;;;;;;;;5144274;27;20023;-74
2022/10/30 07:44:05;;;;;;;11.50;7.53;;;;;;;;;;5125064;27;20015;-77
2022/10/30 07:46:50;;;;;;;12.02;7.60;;;;;;;;;;5109246;28;20074;-75
2022/10/30 07:49:37;;;;;;;10.30;7.13;;;;;;;;;;5116628;28;20016;-77
2022/10/30 07:52:22;;;;;;;14.52;7.47;;;;;;;;;;5117461;28;20026;-75
2022/10/30 07:55:08;;;;;;;11.70;7.88;;;;;;;;;;5116615;28;20023;-76
2022/10/30 07:57:53;;;;;;;11.75;7.93;;;;;;;;;;5102951;28;20077;-76
2022/10/30 08:00:42;;;;;;;10.68;7.85;;;;;;;;;;5117683;28;20137;-77
2022/10/30 08:03:28;;;;;;;13.18;7.65;;;;;;;;;;5116812;28;20067;-77
2022/10/30 08:06:14;;;;;;;12.57;8.93;;;;;;;;;;5116366;28;20018;-75
2022/10/30 08:08:59;;;;;;;12.82;8.88;;;;;;;;;;5128840;27;20030;-76
2022/10/30 08:11:45;;;;;;;14.70;9.85;;;;;;;;;;5116301;28;20027;-75
2022/10/30 08:14:30;;;;;;;14.43;9.70;;;;;;;;;;5116086;28;20089;-76
2022/10/30 08:17:16;;;;;;;12.20;9.57;;;;;;;;;;5116324;28;20045;-77
2022/10/30 08:20:02;;;;;;;14.38;9.85;;;;;;;;;;5102444;28;20449;-77
2022/10/30 08:22:48;;;;;;;15.60;10.25;;;;;;;;;;5114588;28;20063;-77
2022/10/30 08:25:34;;;;;;;15.75;10.30;;;;;;;;;;5115585;28;20015;-78
2022/10/30 08:28:19;;;;;;;16.23;9.95;;;;;;;;;;5116450;28;20364;-78
2022/10/30 08:31:05;;;;;;;14.43;9.63;;;;;;;;;;5117612;28;20031;-72
2022/10/30 08:33:50;;;;;;;14.95;9.25;;;;;;;;;;5128230;28;20028;-73
2022/10/30 08:36:36;;;;;;;14.30;9.15;;;;;;;;;;5117174;28;20016;-72
2022/10/30 08:39:21;;;;;;;16.98;9.73;;;;;;;;;;5123636;28;20016;-72
2022/10/30 08:42:07;;;;;;;15.30;8.73;;;;;;;;;;5119473;28;20479;-72
2022/10/30 08:44:53;;;;;;;17.13;8.70;;;;;;;;;;5120523;27;20054;-72
2022/10/30 08:47:38;;;;;;;13.80;9.10;;;;;;;;;;5136525;27;20131;-71
2022/10/30 08:50:24;;;;;;;16.75;8.95;;;;;;;;;;5136300;27;20392;-71
2022/10/30 08:53:11;;;;;;;12.25;9.10;;;;;;;;;;5122548;27;20020;-72
2022/10/30 08:55:56;;;;;;;13.27;8.90;;;;;;;;;;5137279;27;20425;-71
2022/10/30 08:58:42;;;;;;;14.05;8.45;;;;;;;;;;5137591;27;20023;-72
2022/10/30 09:01:27;;;;;;;13.90;7.97;;;;;;;;;;5140749;27;20022;-72
2022/10/30 09:04:13;;;;;;;13.88;8.18;;;;;;;;;;5155900;27;20493;-72
2022/10/30 09:07:02;;;;;;;11.27;8.40;;;;;;;;;;5155876;27;20463;-73
2022/10/30 09:09:47;;;;;;;11.38;8.25;;;;;;;;;;5156415;27;20011;-72
2022/10/30 09:12:33;;;;;;;10.85;7.85;;;;;;;;;;5155159;27;20014;-71
2022/10/30 09:15:18;;;;;;;11.60;7.70;;;;;;;;;;5156255;27;20018;-73
2022/10/30 09:18:04;;;;;;;10.85;8.25;;;;;;;;;;5155554;27;20380;-73
2022/10/30 09:20:50;;;;;;;12.23;8.02;;;;;;;;;;5157668;27;20026;-73
2022/10/30 09:23:36;;;;;;;13.93;7.80;;;;;;;;;;5141704;27;20015;-72
2022/10/30 09:26:21;;;;;;;10.73;7.95;;;;;;;;;;5155164;27;20023;-72
2022/10/30 09:29:07;;;;;;;20.05;8.43;;;;;;;;;;5141082;27;20011;-71
2022/10/30 09:31:52;;;;;;;9.93;7.90;;;;;;;;;;5155750;27;20360;-74
2022/10/30 09:34:38;;;;;;;10.85;8.07;;;;;;;;;;5155532;27;20050;-72
2022/10/30 09:37:25;;;;;;;22.38;9.45;;;;;;;;;;5154439;27;20474;-72
2022/10/30 09:40:18;;;;;;;13.02;9.55;;;;;;;;;;5139612;27;20026;-72
2022/10/30 09:43:14;;;;;;;12.82;8.82;;;;;;;;;;5155447;27;20018;-73
2022/10/30 09:46:07;;;;;;;13.73;9.38;;;;;;;;;;5154134;27;20138;-72
2022/10/30 09:48:59;;;;;;;18.00;12.10;;;;;;;;;;5154882;27;20015;-71
2022/10/30 09:51:45;;;;;;;17.58;11.60;;;;;;;;;;5155307;27;20023;-72
2022/10/30 09:54:39;;;;;;;23.30;12.68;;;;;;;;;;5155855;27;20103;-72
2022/10/30 09:57:44;;;;;;;25.38;13.05;;;;;;;;;;5155421;27;20025;-71
2022/10/30 10:00:33;;;;;;;12.00;8.70;;;;;;;;;;5155754;27;20083;-72
2022/10/30 10:03:25;;;;;;;12.82;8.93;;;;;;;;;;5154810;27;20031;-73
2022/10/30 10:06:14;;;;;;;12.60;8.35;;;;;;;;;;5154817;27;20041;-73
2022/10/30 10:09:03;;;;;;;11.88;7.93;;;;;;;;;;5156229;27;20053;-72
2022/10/30 10:11:52;;;;;;;12.73;8.38;;;;;;;;;;5155744;27;20034;-72
2022/10/30 10:14:41;;;;;;;12.52;8.30;;;;;;;;;;5155399;27;20014;-73
2022/10/30 10:17:34;;;;;;;11.13;7.43;;;;;;;;;;5154121;27;20015;-73
2022/10/30 10:20:28;;;;;;;10.85;7.63;;;;;;;;;;5154923;27;20095;-73
2022/10/30 10:23:18;;;;;;;12.07;7.95;;;;;;;;;;5155676;27;20034;-73
2022/10/30 10:26:13;;;;;;;14.85;8.52;;;;;;;;;;5143928;27;20018;-73
2022/10/30 10:29:01;;;;;;;10.05;7.55;;;;;;;;;;5158989;27;20011;-73
2022/10/30 10:31:50;;;;;;;13.85;7.43;;;;;;;;;;5158753;27;20019;-71
2022/10/30 10:34:48;;;;;;;12.75;7.75;;;;;;;;;;5159087;27;20029;-72
2022/10/30 10:37:36;;;;;;;10.25;7.00;;;;;;;;;;5158971;27;20018;-72
2022/10/30 10:40:22;;;;;;;8.60;6.93;;;;;;;;;;5159155;27;20022;-73
2022/10/30 10:43:10;;;;;;;12.20;7.53;;;;;;;;;;5142825;27;20106;-73
2022/10/30 10:46:02;;;;;;;11.60;7.43;;;;;;;;;;5143584;27;20042;-72
2022/10/30 10:48:54;;;;;;;9.40;7.60;;;;;;;;;;5158895;27;20015;-72
2022/10/30 10:51:41;;;;;;;11.45;7.25;;;;;;;;;;5159476;27;20101;-71
2022/10/30 10:54:30;;;;;;;10.18;6.97;;;;;;;;;;5158897;27;20444;-71
2022/10/30 10:57:21;;;;;;;10.43;7.10;;;;;;;;;;5158403;27;20033;-71
2022/10/30 11:00:12;;;;;;;10.45;7.10;;;;;;;;;;5158225;27;20492;-71
2022/10/30 11:03:14;;;;;;;8.88;7.20;;;;;;;;;;5157910;27;20086;-71
2022/10/30 11:06:20;;;;;;;11.48;6.93;;;;;;;;;;5158160;27;20025;-72
2022/10/30 11:09:15;;;;;;;10.82;7.10;;;;;;;;;;5159361;27;20163;-71
2022/10/30 11:12:01;;;;;;;12.73;6.30;;;;;;;;;;5157804;27;20025;-71
2022/10/30 11:14:46;;;;;;;11.07;6.53;;;;;;;;;;5158210;27;20113;-74
2022/10/30 11:17:41;;;;;;;8.15;6.53;;;;;;;;;;5157930;27;20023;-73
2022/10/30 11:20:46;;;;;;;11.65;7.28;;;;;;;;;;5158959;27;20018;-76
2022/10/30 11:23:40;;;;;;;9.70;6.38;;;;;;;;;;5157939;27;20057;-74
2022/10/30 11:26:30;;;;;;;8.82;6.65;;;;;;;;;;5143258;27;20011;-74
2022/10/30 11:29:19;;;;;;;8.65;6.32;;;;;;;;;;5157754;27;20026;-75
2022/10/30 11:32:05;;;;;;;9.15;7.13;;;;;;;;;;5157482;27;20030;-75
2022/10/30 11:35:02;;;;;;;12.73;6.18;;;;;;;;;;5157224;27;20106;-73
2022/10/30 11:37:49;;;;;;;8.77;6.05;;;;;;;;;;5157571;27;20401;-72
2022/10/30 11:40:35;;;;;;;9.38;7.00;;;;;;;;;;5158041;27;20037;-73
2022/10/30 11:43:22;;;;;;;8.65;5.90;;;;;;;;;;5158371;27;20110;-73
2022/10/30 11:46:10;;;;;;;13.27;6.15;;;;;;;;;;5142512;27;20034;-74
2022/10/30 11:48:56;;;;;;;8.45;5.95;;;;;;;;;;5158058;27;20015;-74
2022/10/30 11:51:46;;;;;;;9.90;6.28;;;;;;;;;;5156927;27;20027;-74
2022/10/30 11:54:35;;;;;;;11.85;7.00;;;;;;;;;;5142790;27;20014;-75
2022/10/30 11:57:22;;;;;;;10.07;6.55;;;;;;;;;;5142533;27;20037;-75
2022/10/30 12:00:14;;;;;;;8.70;5.88;;;;;;;;;;5142029;27;20038;-75
2022/10/30 12:03:00;;;;;;;10.68;5.75;;;;;;;;;;5142577;27;20444;-74
2022/10/30 12:05:45;;;;;;;8.13;5.70;;;;;;;;;;5157451;27;20501;-75
2022/10/30 12:08:31;;;;;;;11.95;5.70;;;;;;;;;;5157429;27;20106;-75
2022/10/30 12:11:16;;;;;;;10.65;6.28;;;;;;;;;;5156831;27;20457;-73
2022/10/30 12:14:02;;;;;;;9.10;5.88;;;;;;;;;;5156955;27;20482;-75
2022/10/30 12:16:51;;;;;;;8.90;5.68;;;;;;;;;;5157353;27;20019;-74
2022/10/30 12:19:56;;;;;;;9.00;5.68;;;;;;;;;;5157391;27;20046;-75
2022/10/30 12:22:42;;;;;;;8.82;6.10;;;;;;;;;;5157079;27;20030;-75
2022/10/30 12:25:28;;;;;;;6.03;5.28;;;;;;;;;;5155949;27;20057;-75
2022/10/30 12:28:28;;;;;;;7.78;6.00;;;;;;;;;;5142896;27;20010;-75
2022/10/30 12:31:16;;;;;;;9.90;6.47;;;;;;;;;;5156877;27;20329;-75
2022/10/30 12:34:02;;;;;;;10.90;5.80;;;;;;;;;;5156799;27;20432;-74
2022/10/30 12:36:51;;;;;;;10.32;6.00;;;;;;;;;;5156670;27;20022;-74
2022/10/30 12:39:52;;;;;;;7.72;5.40;;;;;;;;;;5142010;27;20023;-73
2022/10/30 12:42:53;;;;;;;8.50;5.68;;;;;;;;;;5162422;27;20066;-73
2022/10/30 12:45:42;;;;;;;10.23;5.80;;;;;;;;;;5141694;27;20098;-76
2022/10/30 12:48:27;;;;;;;10.45;6.70;;;;;;;;;;5157173;27;20470;-76
2022/10/30 12:51:16;;;;;;;8.40;6.30;;;;;;;;;;5156760;27;20022;-75
2022/10/30 12:54:07;;;;;;;10.07;6.15;;;;;;;;;;5141800;27;20046;-75
2022/10/30 12:56:59;;;;;;;7.32;5.93;;;;;;;;;;5156471;27;20364;-74
2022/10/30 12:59:59;;;;;;;7.70;6.15;;;;;;;;;;5141549;27;20011;-75
2022/10/30 13:02:54;;;;;;;7.93;5.75;;;;;;;;;;5156214;27;20110;-75
2022/10/30 13:05:41;;;;;;;10.23;5.90;;;;;;;;;;5157043;27;20345;-76
2022/10/30 13:08:33;;;;;;;10.30;5.53;;;;;;;;;;5157442;27;20023;-75
2022/10/30 13:11:22;;;;;;;9.20;5.65;;;;;;;;;;5156238;27;20436;-76
2022/10/30 13:14:28;;;;;;;7.80;5.15;;;;;;;;;;5156468;27;20109;-75
2022/10/30 13:17:14;;;;;;;6.85;5.32;;;;;;;;;;5153857;27;20027;-74
2022/10/30 13:19:59;;;;;;;9.00;5.22;;;;;;;;;;5155767;27;20015;-76
2022/10/30 13:22:52;;;;;;;7.07;5.07;;;;;;;;;;5155860;27;20019;-74
2022/10/30 13:25:38;;;;;;;6.93;5.18;;;;;;;;;;5155828;27;20360;-75
2022/10/30 13:28:46;;;;;;;7.10;5.03;;;;;;;;;;5155867;27;20044;-76
2022/10/30 13:31:32;;;;;;;6.75;5.47;;;;;;;;;;5155346;27;20053;-75
2022/10/30 13:34:21;;;;;;;7.70;5.57;;;;;;;;;;5143974;27;20027;-75
2022/10/30 13:37:09;;;;;;;9.50;5.35;;;;;;;;;;5160840;27;20019;-74
2022/10/30 13:40:03;;;;;;;12.13;5.82;;;;;;;;;;5158734;27;20023;-76
2022/10/30 13:42:52;;;;;;;11.77;5.32;;;;;;;;;;5140563;27;20432;-73
2022/10/30 13:45:46;;;;;;;9.38;5.65;;;;;;;;;;5155435;27;20046;-74
2022/10/30 13:48:50;;;;;;;9.95;5.70;;;;;;;;;;5140881;27;20015;-76
2022/10/30 13:51:49;;;;;;;16.52;5.70;;;;;;;;;;5154902;27;20034;-74
2022/10/30 13:54:37;;;;;;;9.43;6.38;;;;;;;;;;5155582;27;20041;-76
2022/10/30 13:57:26;;;;;;;9.23;5.72;;;;;;;;;;5154721;27;20489;-75
2022/10/30 14:00:19;;;;;;;8.82;5.93;;;;;;;;;;5155282;27;20018;-75
2022/10/30 14:03:13;;;;;;;9.85;5.68;;;;;;;;;;5155668;27;20050;-75
2022/10/30 14:06:01;;;;;;;9.18;6.43;;;;;;;;;;5140084;27;20015;-75
2022/10/30 14:08:52;;;;;;;9.77;6.55;;;;;;;;;;5140328;27;20011;-76
2022/10/30 14:11:37;;;;;;;8.18;5.90;;;;;;;;;;5154951;27;20446;-75
2022/10/30 14:14:29;;;;;;;8.55;5.68;;;;;;;;;;5154739;27;20030;-76
2022/10/30 14:17:16;;;;;;;6.88;4.90;;;;;;;;;;5154781;27;20023;-75
2022/10/30 14:20:05;;;;;;;11.27;5.80;;;;;;;;;;5155190;27;20019;-74
2022/10/30 14:23:16;;;;;;;9.65;5.72;;;;;;;;;;5154608;27;20079;-76
2022/10/30 14:26:05;;;;;;;9.20;5.97;;;;;;;;;;5136512;27;20030;-76
2022/10/30 14:28:53;;;;;;;10.23;5.75;;;;;;;;;;5155842;27;20452;-77
2022/10/30 14:31:39;;;;;;;7.93;5.60;;;;;;;;;;5155338;27;20496;-76
2022/10/30 14:34:43;;;;;;;11.35;6.20;;;;;;;;;;5155058;27;20015;-75
2022/10/30 14:37:30;;;;;;;9.38;6.30;;;;;;;;;;5153751;27;20029;-75
2022/10/30 14:40:35;;;;;;;7.78;6.07;;;;;;;;;;5155350;27;20019;-74
2022/10/30 14:43:35;;;;;;;8.73;6.20;;;;;;;;;;5154841;27;20019;-76
2022/10/30 14:46:23;;;;;;;10.88;6.43;;;;;;;;;;5154171;27;20039;-78
2022/10/30 14:49:29;;;;;;;9.50;5.80;;;;;;;;;;5154586;27;20037;-76
2022/10/30 14:52:34;;;;;;;8.90;6.25;;;;;;;;;;5155038;27;20024;-74
2022/10/30 14:55:38;;;;;;;12.55;6.30;;;;;;;;;;5155073;27;20037;-75
2022/10/30 14:58:25;;;;;;;12.98;6.57;;;;;;;;;;5153457;27;20050;-77
2022/10/30 15:01:32;;;;;;;13.43;6.60;;;;;;;;;;5139694;27;20037;-77
2022/10/30 15:04:21;;;;;;;13.30;6.55;;;;;;;;;;5154193;27;20037;-78
2022/10/30 15:07:34;;;;;;;11.52;6.82;;;;;;;;;;5154066;27;20011;-77
2022/10/30 15:10:33;;;;;;;20.98;7.90;;;;;;;;;;5142051;27;20098;-77
2022/10/30 15:13:20;;;;;;;16.33;8.25;;;;;;;;;;5158557;27;20023;-76
2022/10/30 15:16:07;;;;;;;14.35;7.93;;;;;;;;;;5143851;27;20023;-76
2022/10/30 15:18:58;;;;;;;16.85;8.38;;;;;;;;;;5158437;27;20076;-76
2022/10/30 15:21:45;;;;;;;18.33;8.35;;;;;;;;;;5143492;27;20023;-77
2022/10/30 15:24:32;;;;;;;19.67;9.40;;;;;;;;;;5143708;27;20018;-78
2022/10/30 15:27:22;;;;;;;17.27;9.85;;;;;;;;;;5143551;27;20015;-76
2022/10/30 15:30:13;;;;;;;16.10;9.80;;;;;;;;;;5158739;27;20405;-74
2022/10/30 15:32:59;;;;;;;22.33;9.60;;;;;;;;;;5157974;27;20406;-74
2022/10/30 15:35:46;;;;;;;20.40;9.85;;;;;;;;;;5143712;27;20060;-75
2022/10/30 15:38:34;;;;;;;25.65;11.35;;;;;;;;;;5143203;27;20029;-74
2022/10/30 15:41:19;;;;;;;28.52;11.35;;;;;;;;;;5157631;27;20356;-74
2022/10/30 15:44:05;;;;;;;33.53;14.13;;;;;;;;;;5158050;27;20460;-75
2022/10/30 15:46:52;;;;;;;33.22;14.20;;;;;;;;;;5157448;27;20082;-75
2022/10/30 15:49:39;;;;;;;31.40;13.15;;;;;;;;;;5143026;27;20034;-74
2022/10/30 15:52:29;;;;;;;32.00;13.15;;;;;;;;;;5157941;27;20496;-73
2022/10/30 15:55:17;;;;;;;43.65;16.05;;;;;;;;;;5158372;27;20356;-74
2022/10/30 15:58:03;;;;;;;41.72;14.90;;;;;;;;;;5143253;27;20052;-75
2022/10/30 16:00:59;;;;;;;37.50;15.65;;;;;;;;;;5157862;27;20105;-73
2022/10/30 16:03:50;;;;;;;47.95;16.27;;;;;;;;;;5157786;27;20030;-76
2022/10/30 16:06:35;;;;;;;45.05;17.42;;;;;;;;;;5157615;27;20050;-75
2022/10/30 16:09:22;;;;;;;47.17;17.50;;;;;;;;;;5143180;27;20011;-74
2022/10/30 16:12:09;;;;;;;46.78;18.17;;;;;;;;;;5157166;27;20027;-75
2022/10/30 16:14:55;;;;;;;47.33;17.92;;;;;;;;;;5142346;27;20126;-75
2022/10/30 16:17:41;;;;;;;69.15;20.48;;;;;;;;;;5156995;27;20019;-75
2022/10/30 16:20:27;;;;;;;55.08;20.40;;;;;;;;;;5156399;27;20023;-76
2022/10/30 16:23:13;;;;;;;51.90;18.50;;;;;;;;;;5157453;27;20432;-73
2022/10/30 16:25:58;;;;;;;40.88;17.90;;;;;;;;;;5156562;27;20053;-70
2022/10/30 16:28:45;;;;;;;54.70;18.60;;;;;;;;;;5157122;27;20412;-74
2022/10/30 16:31:33;;;;;;;47.42;19.55;;;;;;;;;;5156653;27;20019;-74
2022/10/30 16:34:21;;;;;;;46.15;19.73;;;;;;;;;;5157125;27;20059;-75